Time;durP1;ratioP1;P1;durP2;ratioP2;P2;SDS_P1;SDS_P2;PMS_P1;PMS_P2;Temp;Humidity;BMP_temperature;BMP_pressure;BME280_temperature;BME280_humidity;BME280_pressure;Samples;Min_cycle;Max_cycle;Signal;HPM_P1;HPM_P2
2022/03/25 00:01:18;;;;;;;108.80;57.30;;;7.10;99.90;;;;;;4953364;28;20139;-66
2022/03/25 00:03:45;;;;;;;97.25;60.13;;;7.10;99.90;;;;;;4955488;28;20077;-67
2022/03/25 00:06:12;;;;;;;96.32;59.10;;;7.10;99.90;;;;;;4950509;29;20047;-67
2022/03/25 00:08:39;;;;;;;94.57;58.17;;;7.00;99.90;;;;;;4950256;28;20060;-66
2022/03/25 00:11:06;;;;;;;94.35;56.50;;;7.00;99.90;;;;;;4946283;29;20051;-66
2022/03/25 00:13:33;;;;;;;105.13;59.58;;;7.00;99.90;;;;;;4951899;28;20054;-66
2022/03/25 00:16:00;;;;;;;97.30;56.28;;;6.90;99.90;;;;;;4939822;29;20048;-66
2022/03/25 00:18:27;;;;;;;97.10;59.00;;;6.90;99.90;;;;;;4969752;28;20067;-66
2022/03/25 00:20:54;;;;;;;97.32;58.95;;;6.80;99.90;;;;;;4943340;29;20455;-66
2022/03/25 00:23:22;;;;;;;97.53;57.20;;;6.70;99.90;;;;;;4950355;29;20106;-66
2022/03/25 00:25:49;;;;;;;100.38;58.30;;;6.70;99.90;;;;;;4949735;28;20131;-67
2022/03/25 00:28:16;;;;;;;96.82;61.08;;;6.70;99.90;;;;;;4941801;29;20051;-67
2022/03/25 00:30:43;;;;;;;104.03;60.92;;;6.70;99.90;;;;;;4940363;29;20051;-66
2022/03/25 00:33:11;;;;;;;99.88;59.25;;;6.60;99.90;;;;;;4954036;29;20090;-67
2022/03/25 00:35:41;;;;;;;93.65;57.50;;;6.60;99.90;;;;;;4942162;28;20048;-66
2022/03/25 00:38:08;;;;;;;93.28;55.40;;;6.60;99.90;;;;;;4935350;29;20067;-66
2022/03/25 00:40:35;;;;;;;106.28;59.97;;;6.50;99.90;;;;;;4949745;28;20514;-66
2022/03/25 00:43:02;;;;;;;104.75;59.15;;;6.50;99.90;;;;;;4959790;28;20047;-66
2022/03/25 00:45:29;;;;;;;99.78;58.42;;;6.50;99.90;;;;;;4956149;29;20054;-66
2022/03/25 00:47:56;;;;;;;102.82;60.40;;;6.40;99.90;;;;;;4964023;28;20051;-67
2022/03/25 00:50:23;;;;;;;104.47;58.20;;;6.40;99.90;;;;;;4943170;29;20055;-66
2022/03/25 00:52:50;;;;;;;98.80;58.00;;;6.40;99.90;;;;;;4952292;29;20070;-66
2022/03/25 00:55:17;;;;;;;98.43;58.88;;;6.30;99.90;;;;;;4954527;28;20172;-67
2022/03/25 00:57:44;;;;;;;101.57;60.65;;;6.30;99.90;;;;;;4954698;28;20058;-67
2022/03/25 01:00:11;;;;;;;97.43;57.58;;;6.20;99.90;;;;;;4953224;28;20051;-66
2022/03/25 01:02:38;;;;;;;102.03;58.22;;;6.30;99.90;;;;;;4950871;28;20063;-67
2022/03/25 01:05:06;;;;;;;102.13;60.63;;;6.20;99.90;;;;;;4967978;28;20082;-66
2022/03/25 01:07:34;;;;;;;98.50;59.75;;;6.20;99.90;;;;;;4951192;29;20074;-66
2022/03/25 01:10:01;;;;;;;109.60;61.58;;;6.20;99.90;;;;;;4947083;28;20052;-67
2022/03/25 01:12:28;;;;;;;97.95;55.50;;;6.10;99.90;;;;;;4949497;28;20070;-67
2022/03/25 01:14:55;;;;;;;104.03;57.85;;;6.00;99.90;;;;;;4945036;29;20055;-67
2022/03/25 01:17:22;;;;;;;99.65;58.90;;;6.00;99.90;;;;;;4938055;29;20043;-68
2022/03/25 01:19:49;;;;;;;95.43;56.28;;;6.00;99.90;;;;;;4947558;29;20046;-67
2022/03/25 01:22:16;;;;;;;98.95;57.95;;;6.00;99.90;;;;;;4959228;28;20454;-67
2022/03/25 01:24:43;;;;;;;92.45;52.53;;;6.00;99.90;;;;;;4940611;29;20055;-66
2022/03/25 01:27:10;;;;;;;90.28;52.78;;;6.00;99.90;;;;;;4953912;28;20483;-68
2022/03/25 01:29:36;;;;;;;94.15;52.95;;;5.90;99.90;;;;;;4955118;28;20055;-67
2022/03/25 01:32:06;;;;;;;83.57;50.55;;;5.90;99.90;;;;;;4943692;28;20060;-66
2022/03/25 01:34:33;;;;;;;84.80;48.80;;;5.90;99.90;;;;;;4952074;29;20062;-66
2022/03/25 01:37:01;;;;;;;92.05;49.50;;;5.80;99.90;;;;;;4941971;29;20055;-66
2022/03/25 01:39:28;;;;;;;86.95;49.97;;;5.80;99.90;;;;;;4964956;28;20057;-66
2022/03/25 01:41:55;;;;;;;85.93;51.72;;;5.70;99.90;;;;;;4937158;28;20059;-67
2022/03/25 01:44:27;;;;;;;88.18;52.30;;;5.70;99.90;;;;;;4949867;29;20395;-66
2022/03/25 01:46:55;;;;;;;84.18;48.45;;;5.60;99.90;;;;;;4944045;29;20055;-67
2022/03/25 01:49:22;;;;;;;90.10;51.30;;;5.60;99.90;;;;;;4967653;28;20054;-66
2022/03/25 01:51:53;;;;;;;84.88;48.80;;;5.60;99.90;;;;;;4918090;29;20055;-65
2022/03/25 01:54:20;;;;;;;85.65;51.15;;;5.60;99.90;;;;;;4944490;29;20447;-67
2022/03/25 01:57:01;;;;;;;84.35;48.13;;;5.60;99.90;;;;;;4953191;29;20082;-66
2022/03/25 01:59:28;;;;;;;84.28;47.67;;;5.60;99.90;;;;;;4951804;29;20055;-66
2022/03/25 02:01:56;;;;;;;80.50;46.72;;;5.50;99.90;;;;;;4935915;29;20066;-68
2022/03/25 02:04:23;;;;;;;85.13;48.40;;;5.50;99.90;;;;;;4952518;28;20139;-66
2022/03/25 02:06:53;;;;;;;80.45;47.22;;;5.40;99.90;;;;;;4964553;28;20051;-67
2022/03/25 02:09:21;;;;;;;78.45;45.83;;;5.40;99.90;;;;;;4941165;28;20052;-67
2022/03/25 02:11:48;;;;;;;81.60;47.80;;;5.40;99.90;;;;;;4935358;28;20060;-66
2022/03/25 02:14:16;;;;;;;78.00;46.20;;;5.30;99.90;;;;;;4932874;29;20070;-67
2022/03/25 02:16:45;;;;;;;77.82;45.08;;;5.30;99.90;;;;;;4936797;29;20114;-66
2022/03/25 02:19:13;;;;;;;79.25;46.55;;;5.30;99.90;;;;;;4951175;29;20047;-66
2022/03/25 02:21:40;;;;;;;78.60;47.45;;;5.20;99.90;;;;;;4946507;29;20060;-66
2022/03/25 02:24:08;;;;;;;83.03;45.45;;;5.20;99.90;;;;;;4938246;29;20047;-66
2022/03/25 02:26:36;;;;;;;78.25;43.72;;;5.20;99.90;;;;;;4924504;29;20054;-67
2022/03/25 02:29:04;;;;;;;72.07;42.17;;;5.10;99.90;;;;;;4964454;28;20051;-66
2022/03/25 02:31:31;;;;;;;80.85;45.13;;;5.10;99.90;;;;;;4964489;28;20047;-66
2022/03/25 02:34:04;;;;;;;75.22;43.42;;;5.10;99.90;;;;;;4939228;29;20047;-66
2022/03/25 02:36:40;;;;;;;77.45;44.53;;;5.00;99.90;;;;;;4943074;29;20043;-66
2022/03/25 02:39:08;;;;;;;75.53;45.88;;;5.00;99.90;;;;;;4947639;29;20058;-66
2022/03/25 02:41:35;;;;;;;70.82;43.28;;;5.00;99.90;;;;;;4951305;29;20514;-67
2022/03/25 02:44:02;;;;;;;77.35;45.00;;;4.90;99.90;;;;;;4951296;28;20039;-66
2022/03/25 02:46:29;;;;;;;80.07;45.10;;;4.90;99.90;;;;;;4948207;29;20054;-66
2022/03/25 02:48:56;;;;;;;77.45;46.75;;;4.80;99.90;;;;;;4962770;28;20047;-66
2022/03/25 02:51:23;;;;;;;74.60;44.38;;;4.80;99.90;;;;;;4945924;28;20047;-66
2022/03/25 02:53:50;;;;;;;80.90;45.80;;;4.80;99.90;;;;;;4964201;28;20055;-66
2022/03/25 02:56:18;;;;;;;82.13;48.40;;;4.70;99.90;;;;;;4950083;29;20043;-66
2022/03/25 02:58:45;;;;;;;89.82;49.45;;;4.80;99.90;;;;;;4937472;29;20510;-66
2022/03/25 03:01:13;;;;;;;88.97;48.90;;;4.70;99.90;;;;;;4936275;29;20095;-66
2022/03/25 03:03:40;;;;;;;85.80;46.17;;;4.70;99.90;;;;;;4934001;29;20087;-66
2022/03/25 03:06:12;;;;;;;82.70;47.88;;;4.70;99.90;;;;;;4933561;29;20463;-66
2022/03/25 03:08:41;;;;;;;83.57;47.60;;;4.70;99.90;;;;;;4939432;29;20051;-66
2022/03/25 03:11:11;;;;;;;83.43;47.85;;;4.60;99.90;;;;;;4950153;29;20514;-66
2022/03/25 03:13:38;;;;;;;87.50;47.88;;;4.60;99.90;;;;;;4957254;28;20043;-66
2022/03/25 03:16:06;;;;;;;85.25;47.08;;;4.60;99.90;;;;;;4950273;29;20052;-66
2022/03/25 03:18:33;;;;;;;79.38;47.45;;;4.50;99.90;;;;;;4950063;28;20126;-66
2022/03/25 03:21:00;;;;;;;82.50;46.67;;;4.50;99.90;;;;;;4935413;29;20068;-66
2022/03/25 03:23:27;;;;;;;88.47;49.40;;;4.40;99.90;;;;;;4962510;28;20073;-66
2022/03/25 03:25:54;;;;;;;80.20;45.13;;;4.40;99.90;;;;;;4944055;29;20054;-66
2022/03/25 03:28:20;;;;;;;74.47;44.28;;;4.40;99.90;;;;;;4943328;28;20050;-66
2022/03/25 03:30:48;;;;;;;78.35;45.28;;;4.30;99.90;;;;;;4942020;29;20052;-66
2022/03/25 03:33:15;;;;;;;80.25;46.17;;;4.30;99.90;;;;;;4943863;29;20044;-66
2022/03/25 03:35:42;;;;;;;75.72;42.22;;;4.30;99.90;;;;;;4959196;28;20058;-66
2022/03/25 03:38:09;;;;;;;79.15;44.53;;;4.30;99.90;;;;;;4969910;28;20388;-65
2022/03/25 03:40:37;;;;;;;79.03;43.30;;;4.20;99.90;;;;;;4941193;28;20051;-66
2022/03/25 03:43:04;;;;;;;79.00;43.42;;;4.20;99.90;;;;;;4966065;28;20062;-66
2022/03/25 03:45:32;;;;;;;77.68;41.38;;;4.20;99.90;;;;;;4954475;28;20122;-65
2022/03/25 03:47:59;;;;;;;79.20;44.50;;;4.10;99.90;;;;;;4945505;29;20074;-67
2022/03/25 03:50:25;;;;;;;77.95;45.47;;;4.10;99.90;;;;;;4953453;29;20155;-65
2022/03/25 03:52:55;;;;;;;81.10;45.80;;;4.10;99.90;;;;;;4954292;28;20102;-65
2022/03/25 03:55:22;;;;;;;71.63;41.45;;;4.10;99.90;;;;;;4949985;29;20599;-66
2022/03/25 03:57:49;;;;;;;75.65;41.97;;;4.00;99.90;;;;;;4936743;29;20055;-66
2022/03/25 04:00:16;;;;;;;73.10;44.40;;;4.00;99.90;;;;;;4946964;28;20049;-66
2022/03/25 04:02:44;;;;;;;79.80;45.78;;;4.00;99.90;;;;;;4950428;29;20051;-66
2022/03/25 04:05:12;;;;;;;75.53;42.70;;;4.00;99.90;;;;;;4957440;28;20051;-66
2022/03/25 04:07:43;;;;;;;76.90;42.67;;;3.90;99.90;;;;;;4954194;28;20083;-65
2022/03/25 04:10:10;;;;;;;77.75;42.25;;;3.90;99.90;;;;;;4955234;28;20061;-66
2022/03/25 04:12:37;;;;;;;78.25;42.28;;;3.90;99.90;;;;;;4956902;28;20047;-65
2022/03/25 04:15:05;;;;;;;71.10;42.50;;;3.80;99.90;;;;;;4937903;29;20048;-66
2022/03/25 04:17:32;;;;;;;81.47;43.70;;;3.80;99.90;;;;;;4918199;29;20051;-65
2022/03/25 04:19:59;;;;;;;72.50;41.03;;;3.80;99.90;;;;;;4951993;29;20364;-65
2022/03/25 04:22:26;;;;;;;77.43;41.70;;;3.80;99.90;;;;;;4943062;29;20055;-66
2022/03/25 04:24:56;;;;;;;71.53;42.58;;;3.70;99.90;;;;;;4946157;28;20110;-66
2022/03/25 04:27:23;;;;;;;74.00;41.10;;;3.70;99.90;;;;;;4967721;28;20047;-65
2022/03/25 04:29:50;;;;;;;72.55;41.20;;;3.70;99.90;;;;;;4937282;29;20063;-66
2022/03/25 04:32:17;;;;;;;71.78;40.22;;;3.70;99.90;;;;;;4944517;29;20048;-66
2022/03/25 04:34:44;;;;;;;74.18;41.50;;;3.70;99.90;;;;;;4952192;29;20050;-65
2022/03/25 04:37:11;;;;;;;73.65;42.85;;;3.70;99.90;;;;;;4953765;29;20055;-65
2022/03/25 04:39:39;;;;;;;72.30;41.65;;;3.70;99.90;;;;;;4944581;29;20054;-65
2022/03/25 04:42:07;;;;;;;75.50;43.58;;;3.60;99.90;;;;;;4969969;28;20482;-67
2022/03/25 04:44:34;;;;;;;73.85;42.80;;;3.60;99.90;;;;;;4941527;29;20553;-65
2022/03/25 04:47:03;;;;;;;72.95;40.10;;;3.60;99.90;;;;;;4944634;28;20046;-65
2022/03/25 04:49:30;;;;;;;74.55;42.55;;;3.60;99.90;;;;;;4941501;28;20047;-65
2022/03/25 04:51:57;;;;;;;73.30;40.92;;;3.50;99.90;;;;;;4942431;29;20066;-65
2022/03/25 04:54:23;;;;;;;69.45;41.95;;;3.50;99.90;;;;;;4959496;28;20048;-65
2022/03/25 04:56:50;;;;;;;81.40;44.88;;;3.50;99.90;;;;;;4952463;29;20082;-65
2022/03/25 04:59:17;;;;;;;73.93;42.17;;;3.50;99.90;;;;;;4936222;29;20051;-66
2022/03/25 05:01:44;;;;;;;77.65;42.75;;;3.50;99.90;;;;;;4939475;29;20053;-65
2022/03/25 05:04:11;;;;;;;72.50;41.83;;;3.50;99.90;;;;;;4948949;29;20097;-66
2022/03/25 05:06:38;;;;;;;82.50;43.30;;;3.40;99.90;;;;;;4967237;28;20051;-65
2022/03/25 05:09:06;;;;;;;72.32;40.33;;;3.40;99.90;;;;;;4963745;28;20051;-67
2022/03/25 05:11:33;;;;;;;80.18;43.22;;;3.40;99.90;;;;;;4936828;28;20059;-65
2022/03/25 05:14:00;;;;;;;74.60;40.47;;;3.40;99.90;;;;;;4965272;28;20562;-65
2022/03/25 05:16:27;;;;;;;82.05;43.25;;;3.40;99.90;;;;;;4965866;28;20099;-66
2022/03/25 05:18:55;;;;;;;75.85;43.22;;;3.30;99.90;;;;;;4968985;28;20550;-65
2022/03/25 05:21:22;;;;;;;73.78;41.83;;;3.30;99.90;;;;;;4939852;28;20055;-65
2022/03/25 05:23:48;;;;;;;76.32;40.63;;;3.30;99.90;;;;;;4943141;29;20055;-65
2022/03/25 05:26:16;;;;;;;72.78;39.42;;;3.20;99.90;;;;;;4957715;28;20043;-65
2022/03/25 05:28:48;;;;;;;85.55;44.75;;;3.20;99.90;;;;;;4949056;29;20047;-65
2022/03/25 05:31:15;;;;;;;75.68;42.70;;;3.20;99.90;;;;;;4949576;29;20490;-66
2022/03/25 05:33:42;;;;;;;76.57;40.90;;;3.20;99.90;;;;;;4944520;29;20171;-65
2022/03/25 05:36:09;;;;;;;74.55;42.35;;;3.10;99.90;;;;;;4943624;29;20052;-65
2022/03/25 05:38:36;;;;;;;73.68;43.40;;;3.10;99.90;;;;;;4953676;28;20055;-65
2022/03/25 05:41:03;;;;;;;74.88;41.53;;;3.10;99.90;;;;;;4951433;28;20054;-66
2022/03/25 05:43:30;;;;;;;76.15;41.80;;;3.10;99.90;;;;;;4960559;28;20487;-65
2022/03/25 05:45:57;;;;;;;85.07;42.67;;;3.10;99.90;;;;;;4937733;29;20126;-65
2022/03/25 05:48:24;;;;;;;70.90;41.78;;;3.00;99.90;;;;;;4944807;29;20051;-65
2022/03/25 05:50:51;;;;;;;79.38;41.95;;;3.00;99.90;;;;;;4944126;29;20054;-65
2022/03/25 05:53:18;;;;;;;72.07;39.75;;;3.00;99.90;;;;;;4968628;28;20047;-65
2022/03/25 05:55:45;;;;;;;80.72;45.15;;;3.00;99.90;;;;;;4943533;29;20051;-65
2022/03/25 05:58:12;;;;;;;82.05;43.28;;;3.00;99.90;;;;;;4945950;29;20048;-65
2022/03/25 06:00:39;;;;;;;76.63;41.53;;;3.00;99.90;;;;;;4957907;28;20051;-65
2022/03/25 06:03:06;;;;;;;72.68;40.15;;;3.00;99.90;;;;;;4951644;28;20606;-65
2022/03/25 06:05:34;;;;;;;79.72;42.40;;;3.00;99.90;;;;;;4950641;28;20158;-65
2022/03/25 06:08:00;;;;;;;80.95;46.20;;;3.00;99.90;;;;;;4947384;29;20047;-65
2022/03/25 06:10:27;;;;;;;79.45;44.03;;;2.90;99.90;;;;;;4940012;29;20052;-65
2022/03/25 06:12:54;;;;;;;79.30;43.63;;;3.00;99.90;;;;;;4945591;28;20399;-65
2022/03/25 06:15:21;;;;;;;91.15;48.67;;;3.00;99.90;;;;;;4964992;28;20407;-64
2022/03/25 06:17:50;;;;;;;98.40;48.60;;;3.00;99.90;;;;;;4944248;28;20043;-64
2022/03/25 06:20:18;;;;;;;165.60;56.43;;;3.00;99.90;;;;;;4942752;29;20048;-64
2022/03/25 06:22:45;;;;;;;172.75;65.97;;;3.10;99.90;;;;;;4967559;28;20057;-65
2022/03/25 06:25:13;;;;;;;361.15;74.30;;;3.10;99.90;;;;;;4972057;28;20047;-65
2022/03/25 06:27:49;;;;;;;328.88;69.65;;;3.20;99.90;;;;;;4937487;29;20054;-65
2022/03/25 06:30:16;;;;;;;377.25;74.05;;;3.20;99.90;;;;;;4939320;29;20514;-65
2022/03/25 06:32:43;;;;;;;292.67;66.18;;;3.20;99.90;;;;;;4941418;29;20058;-65
2022/03/25 06:35:10;;;;;;;388.67;82.65;;;3.30;99.90;;;;;;4939955;29;20040;-65
2022/03/25 06:37:37;;;;;;;316.83;71.28;;;3.30;99.90;;;;;;4965766;28;20505;-65
2022/03/25 06:40:07;;;;;;;282.60;65.80;;;3.40;99.90;;;;;;4942545;28;20058;-65
2022/03/25 06:42:35;;;;;;;203.98;60.05;;;3.40;99.90;;;;;;4957769;28;20109;-65
2022/03/25 06:45:07;;;;;;;133.35;54.28;;;3.40;99.90;;;;;;4958036;28;20071;-65
2022/03/25 06:47:34;;;;;;;258.65;62.72;;;3.60;99.90;;;;;;4950139;29;20085;-65
2022/03/25 06:50:03;;;;;;;180.27;61.67;;;3.60;99.90;;;;;;4936561;28;20381;-65
2022/03/25 06:52:30;;;;;;;231.77;64.50;;;3.60;99.90;;;;;;4942044;29;20526;-65
2022/03/25 06:54:57;;;;;;;212.57;60.90;;;3.70;99.90;;;;;;4941885;29;20519;-65
2022/03/25 06:57:24;;;;;;;260.45;64.45;;;3.70;99.90;;;;;;4950935;29;20507;-65
2022/03/25 06:59:51;;;;;;;145.50;57.22;;;3.70;99.90;;;;;;4948319;28;20047;-65
2022/03/25 07:02:18;;;;;;;154.68;55.67;;;3.80;99.90;;;;;;4958696;28;20050;-65
2022/03/25 07:04:46;;;;;;;282.25;65.65;;;3.90;99.90;;;;;;4943359;29;20055;-65
2022/03/25 07:07:13;;;;;;;323.30;65.38;;;3.80;99.90;;;;;;4957992;28;20055;-65
2022/03/25 07:09:40;;;;;;;197.98;59.05;;;3.90;99.90;;;;;;4944636;28;20048;-65
2022/03/25 07:12:07;;;;;;;250.93;64.25;;;3.90;99.90;;;;;;4949940;28;20051;-65
2022/03/25 07:14:34;;;;;;;296.58;65.32;;;4.00;99.90;;;;;;4945016;28;20060;-65
2022/03/25 07:17:01;;;;;;;229.73;63.92;;;4.00;99.90;;;;;;4968335;28;20060;-65
2022/03/25 07:19:28;;;;;;;324.50;66.68;;;4.10;99.90;;;;;;4945156;29;20051;-68
2022/03/25 07:21:55;;;;;;;281.20;67.35;;;4.20;99.90;;;;;;4943512;29;20048;-66
2022/03/25 07:24:23;;;;;;;223.38;65.13;;;4.20;99.90;;;;;;4948616;29;20048;-68
2022/03/25 07:26:50;;;;;;;159.65;58.97;;;4.30;99.90;;;;;;4942343;29;20398;-69
2022/03/25 07:29:18;;;;;;;130.27;58.63;;;4.40;99.90;;;;;;4966417;28;20058;-68
2022/03/25 07:31:45;;;;;;;148.50;58.92;;;4.50;99.90;;;;;;4935657;29;20499;-68
2022/03/25 07:34:12;;;;;;;262.67;68.72;;;4.60;99.90;;;;;;4943098;28;20043;-67
2022/03/25 07:36:39;;;;;;;142.25;54.70;;;4.70;99.90;;;;;;4950003;29;20043;-67
2022/03/25 07:39:06;;;;;;;127.00;59.17;;;4.70;99.90;;;;;;4950481;29;20071;-68
2022/03/25 07:41:34;;;;;;;117.65;58.80;;;4.80;99.90;;;;;;4931434;29;20827;-67
2022/03/25 07:44:01;;;;;;;114.50;68.07;;;4.80;99.90;;;;;;4957860;28;20039;-67
2022/03/25 07:46:28;;;;;;;110.68;65.47;;;4.90;99.90;;;;;;4943895;29;20057;-68
2022/03/25 07:48:55;;;;;;;113.10;62.45;;;5.00;99.90;;;;;;4956046;28;20059;-66
2022/03/25 07:51:22;;;;;;;99.32;58.40;;;5.10;99.90;;;;;;4946868;29;20055;-66
2022/03/25 07:53:49;;;;;;;99.25;59.75;;;5.10;99.90;;;;;;4940699;29;20488;-66
2022/03/25 07:56:16;;;;;;;100.15;60.55;;;5.20;99.90;;;;;;4962642;28;20047;-66
2022/03/25 07:58:43;;;;;;;101.00;60.47;;;5.40;99.90;;;;;;4955340;28;20051;-66
2022/03/25 08:01:10;;;;;;;97.65;61.97;;;5.50;99.90;;;;;;4949888;28;20511;-69
2022/03/25 08:03:37;;;;;;;99.00;59.78;;;5.60;99.90;;;;;;4962089;28;20066;-68
2022/03/25 08:06:04;;;;;;;103.93;63.30;;;5.70;99.90;;;;;;4945571;28;20052;-74
2022/03/25 08:08:31;;;;;;;100.53;62.60;;;5.80;99.90;;;;;;4952100;29;20134;-74
2022/03/25 08:10:58;;;;;;;100.60;63.63;;;5.90;99.90;;;;;;4948322;29;20040;-67
2022/03/25 08:13:25;;;;;;;99.45;63.03;;;6.10;99.90;;;;;;4952624;28;20057;-68
2022/03/25 08:15:52;;;;;;;96.70;64.72;;;6.20;99.90;;;;;;4970983;28;20058;-67
2022/03/25 08:18:20;;;;;;;104.00;66.82;;;6.30;99.90;;;;;;4969665;28;20047;-67
2022/03/25 08:20:47;;;;;;;107.95;68.15;;;6.40;99.90;;;;;;4954344;28;20055;-67
2022/03/25 08:28:50;;;;;;;109.05;67.47;;;6.80;99.90;;;;;;4947367;29;20048;-69
2022/03/25 08:31:38;;;;;;;113.57;71.07;;;7.00;99.90;;;;;;4937056;29;20056;-69
2022/03/25 08:34:07;;;;;;;111.07;70.35;;;7.10;99.90;;;;;;4965698;28;20137;-69
2022/03/25 08:36:34;;;;;;;;;;;7.30;99.90;;;;;;4944355;29;20059;-66
2022/03/25 08:39:01;;;;;;;109.32;67.35;;;7.40;99.90;;;;;;4949763;29;19922;-68
2022/03/25 08:41:28;;;;;;;124.28;77.80;;;7.50;99.90;;;;;;4933759;29;20055;-64
2022/03/25 08:43:55;;;;;;;120.47;74.88;;;7.60;99.90;;;;;;4955544;28;20051;-68
2022/03/25 08:46:22;;;;;;;182.48;118.72;;;7.80;99.90;;;;;;4944502;28;20048;-70
2022/03/25 08:48:49;;;;;;;135.25;86.30;;;7.90;99.90;;;;;;4946851;28;20056;-65
2022/03/25 08:51:16;;;;;;;138.23;85.38;;;8.00;99.90;;;;;;4958276;28;20415;-70
2022/03/25 08:53:44;;;;;;;129.15;85.25;;;8.10;99.90;;;;;;4952625;29;20047;-70
2022/03/25 08:56:11;;;;;;;135.88;85.85;;;8.20;99.90;;;;;;4952532;29;20043;-66
2022/03/25 08:58:38;;;;;;;133.23;82.20;;;8.30;99.90;;;;;;4951457;28;20047;-69
2022/03/25 09:01:04;;;;;;;132.15;81.88;;;8.50;99.90;;;;;;4937406;29;20055;-70
2022/03/25 09:03:32;;;;;;;135.27;83.93;;;8.60;99.90;;;;;;4969775;28;20407;-69
2022/03/25 09:05:59;;;;;;;129.50;81.72;;;8.70;99.90;;;;;;4949775;29;20138;-65
2022/03/25 09:08:30;;;;;;;129.45;85.68;;;8.80;99.90;;;;;;4967557;28;20040;-68
2022/03/25 09:10:57;;;;;;;128.48;81.80;;;8.90;99.90;;;;;;4934366;29;20062;-71
2022/03/25 09:13:25;;;;;;;126.10;79.60;;;9.00;99.90;;;;;;4954582;28;20510;-68
2022/03/25 09:15:52;;;;;;;115.80;70.95;;;9.20;99.90;;;;;;4961739;28;20051;-71
2022/03/25 09:18:19;;;;;;;112.95;72.38;;;9.40;99.90;;;;;;4967955;28;20047;-72
2022/03/25 09:20:46;;;;;;;107.20;68.55;;;9.60;99.90;;;;;;4941495;29;20066;-71
2022/03/25 09:23:13;;;;;;;106.05;66.47;;;9.80;99.90;;;;;;4950877;29;20522;-72
2022/03/25 09:25:41;;;;;;;99.65;66.60;;;10.00;99.90;;;;;;4949531;28;20070;-74
2022/03/25 09:28:08;;;;;;;108.97;65.78;;;10.10;99.90;;;;;;4949410;29;20039;-72
2022/03/25 09:30:35;;;;;;;106.45;68.88;;;10.30;99.90;;;;;;4948060;29;20055;-71
2022/03/25 09:33:03;;;;;;;108.63;65.60;;;10.40;99.90;;;;;;4966156;28;20075;-75
2022/03/25 09:35:42;;;;;;;105.03;65.65;;;10.60;99.40;;;;;;4930637;29;20050;-76
2022/03/25 09:38:11;;;;;;;107.35;67.97;;;10.70;98.80;;;;;;4950446;29;20047;-75
2022/03/25 09:40:40;;;;;;;100.55;64.07;;;10.80;97.80;;;;;;4949042;29;20054;-73
2022/03/25 09:43:07;;;;;;;105.72;65.93;;;10.90;96.60;;;;;;4934860;28;20044;-75
2022/03/25 09:45:35;;;;;;;110.32;69.78;;;10.90;95.80;;;;;;4938159;29;20123;-71
2022/03/25 09:48:02;;;;;;;94.72;63.60;;;10.90;96.00;;;;;;4937689;29;20071;-70
2022/03/25 09:50:30;;;;;;;100.85;61.50;;;11.00;95.50;;;;;;4932676;29;20052;-73
2022/03/25 09:52:56;;;;;;;104.97;69.78;;;11.00;95.30;;;;;;4965758;28;20051;-71
2022/03/25 09:55:44;;;;;;;92.95;60.97;;;11.10;95.80;;;;;;4953426;28;20055;-72
2022/03/25 09:58:18;;;;;;;95.97;60.00;;;11.20;94.80;;;;;;4942305;29;20130;-73
2022/03/25 10:00:52;;;;;;;88.97;58.78;;;11.30;94.60;;;;;;4935255;29;20381;-70
2022/03/25 10:03:36;;;;;;;93.45;59.53;;;11.30;94.20;;;;;;4935490;29;20058;-71
2022/03/25 10:06:09;;;;;;;87.22;57.33;;;11.40;94.30;;;;;;4935459;29;20588;-70
2022/03/25 10:08:43;;;;;;;91.03;58.25;;;11.60;92.90;;;;;;4952069;28;20106;-69
2022/03/25 10:11:30;;;;;;;87.78;58.58;;;11.60;93.70;;;;;;4933887;29;20396;-71
2022/03/25 10:14:21;;;;;;;83.05;53.63;;;11.70;93.90;;;;;;4950739;28;20043;-68
2022/03/25 10:16:49;;;;;;;84.18;56.83;;;11.80;93.00;;;;;;4967664;28;20415;-70
2022/03/25 10:19:21;;;;;;;84.70;56.17;;;11.90;92.70;;;;;;4968120;28;20049;-69
2022/03/25 10:21:51;;;;;;;91.70;57.67;;;12.00;93.00;;;;;;4943996;29;20047;-70
2022/03/25 10:24:44;;;;;;;85.90;58.47;;;12.10;92.60;;;;;;4948661;29;20062;-71
2022/03/25 10:27:17;;;;;;;94.13;58.33;;;12.20;91.70;;;;;;4952841;28;20087;-71
2022/03/25 10:29:47;;;;;;;89.32;57.53;;;12.20;92.00;;;;;;4952328;28;20169;-71
2022/03/25 10:32:18;;;;;;;94.00;59.83;;;12.30;90.90;;;;;;4938173;29;20051;-70
2022/03/25 10:35:09;;;;;;;89.10;55.05;;;12.30;91.00;;;;;;4951725;29;20513;-70
2022/03/25 10:37:38;;;;;;;91.57;58.97;;;12.50;89.70;;;;;;4935638;29;20087;-60
2022/03/25 10:40:06;;;;;;;86.78;59.03;;;12.60;89.60;;;;;;4956504;28;20046;-66
2022/03/25 10:42:33;;;;;;;87.80;56.15;;;12.60;89.90;;;;;;4955395;28;20051;-65
2022/03/25 10:45:00;;;;;;;93.60;56.53;;;12.70;89.40;;;;;;4944714;29;20039;-65
2022/03/25 10:47:28;;;;;;;96.25;53.70;;;12.70;87.60;;;;;;4943110;29;20047;-73
2022/03/25 10:50:12;;;;;;;75.25;49.53;;;12.90;87.60;;;;;;4952312;28;20105;-70
2022/03/25 10:52:39;;;;;;;79.00;48.58;;;12.90;86.90;;;;;;4960846;28;20149;-67
2022/03/25 10:55:20;;;;;;;76.68;44.97;;;13.10;85.60;;;;;;4952563;28;20061;-67
2022/03/25 10:57:50;;;;;;;86.57;44.40;;;13.20;81.00;;;;;;4951104;28;20070;-68
2022/03/25 11:00:18;;;;;;;72.88;44.22;;;13.20;81.20;;;;;;4944642;29;20043;-68
2022/03/25 11:02:45;;;;;;;69.30;44.10;;;13.30;81.50;;;;;;4928395;29;20103;-67
2022/03/25 11:05:13;;;;;;;76.32;48.10;;;13.30;80.70;;;;;;4936805;29;20520;-68
2022/03/25 11:07:43;;;;;;;69.40;44.58;;;13.40;80.00;;;;;;4964860;28;20052;-67
2022/03/25 11:10:13;;;;;;;70.32;44.47;;;13.50;80.50;;;;;;4964886;28;20055;-65
2022/03/25 11:12:46;;;;;;;72.38;44.03;;;13.50;80.60;;;;;;4967244;28;20475;-66
2022/03/25 11:15:18;;;;;;;67.63;46.17;;;13.60;78.90;;;;;;4950620;28;20048;-66
2022/03/25 11:17:45;;;;;;;66.55;43.45;;;13.60;79.40;;;;;;4958599;28;20493;-66
2022/03/25 11:20:13;;;;;;;68.70;41.58;;;13.70;79.30;;;;;;4948410;29;20051;-69
2022/03/25 11:22:55;;;;;;;62.60;41.05;;;13.80;78.50;;;;;;4958731;28;20055;-72
2022/03/25 11:25:22;;;;;;;69.43;40.33;;;13.90;77.80;;;;;;4966468;28;20074;-67
2022/03/25 11:28:11;;;;;;;57.92;38.28;;;13.90;75.70;;;;;;4936411;29;20082;-71
2022/03/25 11:30:38;;;;;;;63.40;40.30;;;13.90;75.30;;;;;;4965295;28;20410;-69
2022/03/25 11:33:06;;;;;;;60.97;37.47;;;13.90;75.70;;;;;;4957950;28;20294;-73
2022/03/25 11:35:35;;;;;;;;;;;14.00;74.70;;;;;;4944535;29;20058;-64
2022/03/25 11:38:13;;;;;;;58.65;37.28;;;14.10;73.60;;;;;;4964107;28;19977;-66
2022/03/25 11:40:45;;;;;;;52.55;34.17;;;14.20;74.70;;;;;;4951779;29;20451;-62
2022/03/25 11:43:22;;;;;;;62.67;37.72;;;14.30;72.60;;;;;;4954207;28;20582;-69
2022/03/25 11:45:58;;;;;;;61.83;36.63;;;14.40;72.10;;;;;;4955417;28;20075;-69
2022/03/25 11:48:25;;;;;;;63.25;36.08;;;14.50;70.80;;;;;;4950170;28;20052;-69
2022/03/25 11:50:55;;;;;;;57.33;36.42;;;14.50;71.80;;;;;;4934408;28;20137;-70
2022/03/25 11:53:22;;;;;;;55.47;35.42;;;14.60;71.60;;;;;;4952948;28;20079;-69
2022/03/25 11:56:06;;;;;;;54.78;35.60;;;14.60;71.30;;;;;;4953117;28;20145;-69
2022/03/25 11:58:38;;;;;;;56.28;36.15;;;14.70;71.10;;;;;;4951691;29;20043;-68
2022/03/25 12:01:13;;;;;;;58.85;34.72;;;14.80;70.10;;;;;;4940809;29;20074;-66
2022/03/25 12:03:44;;;;;;;64.38;38.33;;;14.80;69.90;;;;;;4949357;29;20506;-68
2022/03/25 12:06:14;;;;;;;63.30;34.75;;;14.90;70.90;;;;;;4947581;29;20047;-67
2022/03/25 12:09:02;;;;;;;60.22;34.83;;;15.00;70.70;;;;;;4954348;29;20079;-68
2022/03/25 12:11:51;;;;;;;53.45;33.20;;;15.00;68.50;;;;;;4961050;28;20051;-68
2022/03/25 12:14:19;;;;;;;;;;;15.10;69.50;;;;;;4950130;28;20048;-67
2022/03/25 12:16:49;;;;;;;47.70;31.00;;;15.10;67.60;;;;;;4955273;28;19927;-67
2022/03/25 12:19:28;;;;;;;49.65;32.97;;;15.20;68.40;;;;;;4953107;29;20048;-66
2022/03/25 12:22:14;;;;;;;48.67;32.97;;;15.30;67.20;;;;;;4951273;28;20411;-64
2022/03/25 12:24:41;;;;;;;46.38;30.20;;;15.30;68.10;;;;;;4952594;28;20048;-64
2022/03/25 12:27:08;;;;;;;54.85;32.65;;;15.20;67.50;;;;;;4952764;28;20130;-69
2022/03/25 12:29:36;;;;;;;51.53;34.42;;;15.10;68.40;;;;;;4945381;29;20411;-69
2022/03/25 12:32:15;;;;;;;51.20;33.88;;;15.20;69.10;;;;;;4954715;29;20051;-69
2022/03/25 12:34:58;;;;;;;52.38;33.17;;;15.20;68.10;;;;;;4938778;28;20059;-70
2022/03/25 12:37:35;;;;;;;46.63;31.55;;;15.30;68.20;;;;;;4974131;28;20051;-69
2022/03/25 12:40:30;;;;;;;55.53;31.63;;;15.30;69.30;;;;;;4975090;28;20082;-69
2022/03/25 12:43:03;;;;;;;53.90;32.25;;;15.30;68.00;;;;;;4954932;28;20061;-67
2022/03/25 12:45:31;;;;;;;49.10;30.83;;;15.30;68.80;;;;;;4938084;29;20054;-68
2022/03/25 12:48:06;;;;;;;47.97;30.58;;;15.40;68.40;;;;;;4943167;29;20077;-69